createdAt,value
2022-11-21T00:00:52.539Z,2.35
2022-11-21T00:03:19.900Z,2.20
2022-11-21T00:05:48.969Z,2.20
2022-11-21T00:08:18.595Z,2.14
2022-11-21T00:10:46.046Z,2.13
2022-11-21T00:13:15.550Z,2.12
2022-11-21T00:15:42.372Z,2.08
2022-11-21T00:18:09.902Z,2.06
2022-11-21T00:20:37.201Z,2.08
2022-11-21T00:23:04.420Z,2.08
2022-11-21T00:25:31.093Z,2.06
2022-11-21T00:27:57.858Z,2.08
2022-11-21T00:30:24.695Z,2.07
2022-11-21T00:32:51.348Z,2.06
2022-11-21T00:35:18.146Z,2.10
2022-11-21T00:37:44.861Z,2.14
2022-11-21T00:40:11.840Z,2.20
2022-11-21T00:42:38.550Z,2.17
2022-11-21T00:45:05.772Z,2.18
2022-11-21T00:47:32.447Z,2.15
2022-11-21T00:49:59.053Z,2.15
2022-11-21T00:52:25.736Z,2.17
2022-11-21T00:54:52.522Z,2.20
2022-11-21T00:57:19.205Z,2.16
2022-11-21T00:59:45.853Z,2.19
2022-11-21T01:02:13.833Z,2.25
2022-11-21T01:04:40.559Z,2.22
2022-11-21T01:07:07.292Z,2.24
2022-11-21T01:09:33.973Z,2.24
2022-11-21T01:12:00.581Z,2.26
2022-11-21T01:14:27.526Z,2.29
2022-11-21T01:16:54.323Z,2.29
2022-11-21T01:19:20.963Z,2.35
2022-11-21T01:21:47.650Z,2.35
2022-11-21T01:24:14.247Z,2.33
2022-11-21T01:26:40.921Z,2.35
2022-11-21T01:29:08.834Z,2.36
2022-11-21T01:31:36.132Z,2.36
2022-11-21T01:34:03.143Z,2.31
2022-11-21T01:36:32.104Z,2.38
2022-11-21T01:39:01.304Z,2.37
2022-11-21T01:41:42.899Z,2.45
2022-11-21T01:44:49.798Z,2.45
2022-11-21T01:47:17.223Z,2.50
2022-11-21T01:49:45.652Z,2.53
2022-11-21T01:52:19.062Z,2.50
2022-11-21T01:54:57.002Z,2.54
2022-11-21T01:57:25.999Z,2.54
2022-11-21T02:00:01.380Z,2.53
2022-11-21T02:02:31.397Z,2.46
2022-11-21T02:05:00.144Z,2.36
2022-11-21T02:07:30.587Z,2.40
2022-11-21T02:10:01.953Z,2.29
2022-11-21T02:12:40.794Z,2.31
2022-11-21T02:15:08.226Z,2.23
2022-11-21T02:17:34.899Z,2.20
2022-11-21T02:20:07.992Z,2.22
2022-11-21T02:22:54.838Z,2.13
2022-11-21T02:25:32.407Z,2.10
2022-11-21T02:28:01.917Z,1.98
2022-11-21T02:30:35.251Z,1.91
2022-11-21T02:33:02.165Z,1.94
2022-11-21T02:35:28.849Z,2.00
2022-11-21T02:38:01.041Z,1.98
2022-11-21T02:40:33.130Z,1.99
2022-11-21T02:43:31.461Z,2.03
2022-11-21T02:45:59.138Z,2.09
2022-11-21T02:48:25.783Z,2.14
2022-11-21T02:50:52.470Z,2.20
2022-11-21T02:53:19.441Z,2.23
2022-11-21T02:55:46.433Z,2.25
2022-11-21T02:58:13.142Z,2.24
2022-11-21T03:00:41.678Z,2.29
2022-11-21T03:03:08.834Z,2.31
2022-11-21T03:05:36.021Z,2.31
2022-11-21T03:08:03.528Z,2.25
2022-11-21T03:10:30.343Z,2.31
2022-11-21T03:13:01.248Z,2.31
2022-11-21T03:15:37.309Z,2.33
2022-11-21T03:18:04.610Z,2.31
2022-11-21T03:20:33.195Z,2.31
2022-11-21T03:22:59.904Z,2.30
2022-11-21T03:25:27.356Z,2.26
2022-11-21T03:27:54.599Z,2.27
2022-11-21T03:30:25.372Z,2.26
2022-11-21T03:32:55.402Z,2.23
2022-11-21T03:35:22.081Z,2.26
2022-11-21T03:37:49.054Z,2.23
2022-11-21T03:40:15.728Z,2.19
2022-11-21T03:42:42.431Z,2.18
2022-11-21T03:45:09.410Z,2.13
2022-11-21T03:47:36.718Z,2.00
2022-11-21T03:50:03.894Z,1.97
2022-11-21T03:52:30.557Z,1.98
2022-11-21T03:54:57.210Z,1.95
2022-11-21T03:57:23.896Z,1.89
2022-11-21T03:59:50.587Z,1.79
2022-11-21T04:02:17.220Z,1.76
2022-11-21T04:04:43.823Z,1.66
2022-11-21T04:07:10.534Z,1.64
2022-11-21T04:09:37.227Z,1.69
2022-11-21T04:12:07.648Z,1.76
2022-11-21T04:14:34.911Z,1.70
2022-11-21T04:17:01.735Z,1.70
2022-11-21T04:19:28.466Z,1.66
2022-11-21T04:21:55.114Z,1.68
2022-11-21T04:24:21.789Z,1.69
2022-11-21T04:26:48.414Z,1.72
2022-11-21T04:29:15.168Z,1.85
2022-11-21T04:31:41.820Z,1.84
2022-11-21T04:34:08.397Z,1.79
2022-11-21T04:36:35.054Z,1.78
2022-11-21T04:39:01.757Z,1.90
2022-11-21T04:41:28.442Z,1.85
2022-11-21T04:43:55.101Z,1.92
2022-11-21T04:46:21.693Z,1.96
2022-11-21T04:48:48.304Z,2.03
2022-11-21T04:51:14.955Z,2.03
2022-11-21T04:53:43.097Z,1.93
2022-11-21T04:56:10.401Z,1.87
2022-11-21T04:58:37.312Z,1.82
2022-11-21T05:01:08.306Z,1.93
2022-11-21T05:03:37.884Z,1.86
2022-11-21T05:06:04.650Z,1.84
2022-11-21T05:08:31.322Z,1.94
2022-11-21T05:11:16.606Z,2.03
2022-11-21T05:13:43.204Z,1.78
2022-11-21T05:16:10.246Z,1.75
2022-11-21T05:18:36.890Z,1.82
2022-11-21T05:21:03.658Z,1.91
2022-11-21T05:23:30.281Z,1.92
2022-11-21T05:25:56.992Z,1.85
2022-11-21T05:28:23.701Z,1.87
2022-11-21T05:30:50.321Z,1.88
2022-11-21T05:33:17.079Z,1.93
2022-11-21T05:35:43.980Z,1.94
2022-11-21T05:38:11.094Z,1.96
2022-11-21T05:40:37.787Z,1.89
2022-11-21T05:43:23.300Z,1.94
2022-11-21T05:45:50.801Z,1.93
2022-11-21T05:48:17.987Z,1.95
2022-11-21T05:50:49.467Z,2.01
2022-11-21T05:53:16.935Z,1.92
2022-11-21T05:55:44.181Z,1.96
2022-11-21T05:58:10.989Z,1.83
2022-11-21T06:00:38.432Z,1.91
2022-11-21T06:03:28.789Z,1.74
2022-11-21T06:06:00.471Z,1.74
2022-11-21T06:08:28.186Z,1.69
2022-11-21T06:10:55.133Z,1.63
2022-11-21T06:13:24.719Z,1.61
2022-11-21T06:15:54.354Z,1.58
2022-11-21T06:18:21.238Z,1.53
2022-11-21T06:20:47.950Z,1.49
2022-11-21T06:23:14.767Z,1.57
2022-11-21T06:25:42.352Z,1.50
2022-11-21T06:28:09.306Z,1.35
2022-11-21T06:30:36.239Z,1.38
2022-11-21T06:33:05.502Z,1.34
2022-11-21T06:35:32.968Z,1.36
2022-11-21T06:37:59.580Z,1.41
2022-11-21T06:40:26.448Z,1.44
2022-11-21T06:42:53.141Z,1.26
2022-11-21T06:45:19.771Z,1.23
2022-11-21T06:47:46.474Z,1.25
2022-11-21T06:50:13.139Z,1.35
2022-11-21T06:52:39.767Z,1.40
2022-11-21T06:55:06.752Z,1.47
2022-11-21T06:57:34.559Z,1.48
2022-11-21T07:00:01.288Z,1.50
2022-11-21T07:02:27.924Z,1.51
2022-11-21T07:04:54.540Z,1.52
2022-11-21T07:07:21.221Z,1.59
2022-11-21T07:09:48.249Z,1.65
2022-11-21T07:12:33.875Z,1.64
2022-11-21T07:15:00.583Z,1.65
2022-11-21T07:17:27.301Z,1.74
2022-11-21T07:19:53.923Z,1.81
2022-11-21T07:22:20.574Z,1.94
2022-11-21T07:24:47.244Z,1.99
2022-11-21T07:27:13.907Z,2.08
2022-11-21T07:29:40.820Z,2.22
2022-11-21T07:32:07.548Z,2.32
2022-11-21T07:34:34.239Z,2.16
2022-11-21T07:37:01.319Z,2.32
2022-11-21T07:39:28.079Z,2.49
2022-11-21T07:41:56.160Z,2.61
2022-11-21T07:44:22.919Z,2.92
2022-11-21T07:46:49.560Z,3.91
2022-11-21T07:49:16.163Z,4.08
2022-11-21T07:51:42.762Z,4.93
2022-11-21T07:54:09.475Z,7.08
2022-11-21T07:56:36.067Z,7.65
2022-11-21T07:59:02.675Z,9.90
2022-11-21T08:01:29.358Z,11.69
2022-11-21T08:03:55.994Z,9.51
2022-11-21T08:06:22.650Z,9.05
2022-11-21T08:08:53.889Z,8.08
2022-11-21T08:11:21.098Z,6.88
2022-11-21T08:13:47.820Z,7.60
2022-11-21T08:16:14.521Z,6.46
2022-11-21T08:18:41.130Z,7.08
2022-11-21T08:21:07.748Z,7.18
2022-11-21T08:23:34.451Z,6.49
2022-11-21T08:26:01.179Z,6.16
2022-11-21T08:28:27.885Z,6.71
2022-11-21T08:30:54.595Z,7.36
2022-11-21T08:33:21.272Z,9.17
2022-11-21T08:35:47.895Z,10.53
2022-11-21T08:38:14.577Z,12.82
2022-11-21T08:40:41.212Z,13.59
2022-11-21T08:43:09.586Z,13.65
2022-11-21T08:45:37.895Z,14.62
2022-11-21T08:48:08.746Z,13.36
2022-11-21T08:50:35.450Z,14.86
2022-11-21T08:53:02.846Z,13.56
2022-11-21T08:55:30.533Z,10.63
2022-11-21T08:57:57.242Z,9.43
2022-11-21T09:00:23.975Z,8.08
2022-11-21T09:02:50.820Z,7.46
2022-11-21T09:05:17.502Z,6.41
2022-11-21T09:07:44.329Z,5.74
2022-11-21T09:10:11.029Z,5.58
2022-11-21T09:12:37.906Z,4.97
2022-11-21T09:15:24.236Z,4.68
2022-11-21T09:18:07.527Z,4.78
2022-11-21T09:20:39.820Z,4.76
2022-11-21T09:23:11.058Z,4.69
2022-11-21T09:25:38.505Z,5.18
2022-11-21T09:28:06.992Z,5.91
2022-11-21T09:30:34.227Z,6.38
2022-11-21T09:33:02.060Z,6.07
2022-11-21T09:35:29.300Z,6.29
2022-11-21T09:37:56.119Z,7.02
2022-11-21T09:40:23.456Z,6.91
2022-11-21T09:43:06.241Z,6.80
2022-11-21T09:45:37.290Z,6.14
2022-11-21T09:48:11.628Z,5.91
2022-11-21T09:50:43.223Z,6.38
2022-11-21T09:53:13.040Z,7.08
2022-11-21T09:55:47.274Z,7.19
2022-11-21T09:58:25.011Z,8.88
2022-11-21T10:00:53.069Z,9.67
2022-11-21T10:03:24.189Z,9.72
2022-11-21T10:05:59.729Z,8.30
2022-11-21T10:09:08.017Z,7.49
2022-11-21T10:12:24.444Z,6.52
2022-11-21T10:15:05.509Z,6.51
2022-11-21T10:17:55.402Z,6.90
2022-11-21T10:20:41.801Z,7.66
2022-11-21T10:23:42.694Z,10.39
2022-11-21T10:26:22.453Z,10.58
2022-11-21T10:29:15.675Z,11.69
2022-11-21T10:31:43.678Z,14.17
2022-11-21T10:34:17.539Z,12.71
2022-11-21T10:36:53.145Z,13.84
2022-11-21T10:39:32.040Z,14.22
2022-11-21T10:42:12.608Z,16.31
2022-11-21T10:44:57.676Z,14.04
2022-11-21T10:47:31.408Z,11.90
2022-11-21T10:50:04.204Z,12.87
2022-11-21T10:52:35.280Z,12.69
2022-11-21T10:55:04.598Z,12.82
2022-11-21T10:57:49.285Z,11.52
2022-11-21T11:00:27.567Z,10.18
2022-11-21T11:02:57.039Z,9.77
2022-11-21T11:05:28.694Z,11.14
2022-11-21T11:08:06.234Z,10.71
2022-11-21T11:10:40.118Z,11.24
2022-11-21T11:13:49.979Z,11.20
2022-11-21T11:16:21.633Z,9.62
2022-11-21T11:19:13.648Z,9.73
2022-11-21T11:21:44.231Z,9.34
2022-11-21T11:24:10.927Z,9.20
2022-11-21T11:27:04.282Z,8.89
2022-11-21T11:29:34.563Z,9.90
2022-11-21T11:32:19.442Z,9.25
2022-11-21T11:34:57.514Z,8.82
2022-11-21T11:37:41.296Z,9.59
2022-11-21T11:40:26.957Z,10.11
2022-11-21T11:43:21.350Z,9.96
2022-11-21T11:46:57.346Z,7.89
2022-11-21T11:49:53.128Z,7.50
2022-11-21T11:52:24.162Z,7.84
2022-11-21T11:55:05.351Z,8.60
2022-11-21T11:57:35.853Z,9.17
2022-11-21T12:00:08.463Z,10.69
2022-11-21T12:02:47.102Z,9.92
2022-11-21T12:05:24.059Z,9.23
2022-11-21T12:11:25.294Z,8.85
2022-11-21T12:13:55.761Z,8.55
2022-11-21T12:16:25.640Z,8.56
2022-11-21T12:19:00.090Z,7.86
2022-11-21T12:21:27.925Z,7.58
2022-11-21T12:23:58.911Z,7.38
2022-11-21T12:26:40.456Z,7.66
2022-11-21T12:29:32.047Z,7.54
2022-11-21T12:32:09.116Z,7.28
2022-11-21T12:34:44.736Z,7.51
2022-11-21T12:37:29.923Z,7.30
2022-11-21T12:40:02.706Z,7.35
2022-11-21T12:42:50.915Z,7.17
2022-11-21T12:45:29.068Z,7.26
2022-11-21T12:48:34.900Z,7.25
2022-11-21T12:52:01.323Z,7.55
2022-11-21T12:54:58.392Z,7.46
2022-11-21T12:57:33.188Z,7.53
2022-11-21T13:00:09.710Z,7.54
2022-11-21T13:02:47.319Z,7.51
2022-11-21T13:05:27.588Z,7.54
2022-11-21T13:08:05.680Z,7.18
2022-11-21T13:10:32.879Z,7.45
2022-11-21T13:13:04.264Z,7.70
2022-11-21T13:15:56.352Z,7.86
2022-11-21T13:18:28.652Z,7.72
2022-11-21T13:20:55.513Z,7.69
2022-11-21T13:23:39.565Z,7.96
2022-11-21T13:26:24.682Z,7.56
2022-11-21T13:29:04.904Z,7.53
2022-11-21T13:31:35.457Z,7.69
2022-11-21T13:34:04.341Z,7.80
2022-11-21T13:36:33.920Z,7.94
2022-11-21T13:39:00.754Z,7.86
2022-11-21T13:41:55.528Z,7.90
2022-11-21T13:44:31.799Z,7.57
2022-11-21T13:47:28.142Z,7.55
2022-11-21T13:50:16.744Z,7.48
2022-11-21T13:53:28.869Z,7.16
2022-11-21T13:55:58.028Z,7.05
2022-11-21T13:58:49.036Z,7.08
2022-11-21T14:01:34.378Z,6.84
2022-11-21T14:04:21.361Z,6.72
2022-11-21T14:06:48.459Z,6.78
2022-11-21T14:09:48.150Z,6.56
2022-11-21T14:12:34.493Z,6.45
2022-11-21T14:15:02.799Z,6.19
2022-11-21T14:17:48.858Z,6.05
2022-11-21T14:20:18.446Z,6.06
2022-11-21T14:22:54.248Z,6.02
2022-11-21T14:25:25.875Z,5.67
2022-11-21T14:27:55.140Z,5.60
2022-11-21T14:30:42.027Z,5.54
2022-11-21T14:33:41.812Z,5.43
2022-11-21T14:36:21.072Z,5.41
2022-11-21T14:39:21.024Z,5.31
2022-11-21T14:41:40.357Z,5.20
2022-11-21T14:44:15.715Z,5.13
2022-11-21T14:46:43.819Z,5.19
2022-11-21T14:49:16.769Z,5.10
2022-11-21T14:51:45.197Z,5.07
2022-11-21T14:54:19.898Z,4.86
2022-11-21T14:56:49.311Z,4.76
2022-11-21T14:59:23.784Z,4.68
2022-11-21T15:02:00.410Z,4.57
2022-11-21T15:04:31.452Z,4.55
2022-11-21T15:06:58.682Z,4.47
2022-11-21T15:12:15.425Z,4.45
2022-11-21T15:15:08.084Z,4.46
2022-11-21T15:17:35.240Z,4.58
2022-11-21T15:20:13.990Z,4.50
2022-11-21T15:22:41.858Z,4.53
2022-11-21T15:25:17.758Z,4.55
2022-11-21T15:27:47.200Z,4.51
2022-11-21T15:30:13.895Z,4.48
2022-11-21T15:33:10.360Z,4.52
2022-11-21T15:35:56.515Z,4.44
2022-11-21T15:38:29.059Z,4.29
2022-11-21T15:40:59.186Z,4.19
2022-11-21T15:43:36.367Z,4.11
2022-11-21T15:46:05.123Z,4.10
2022-11-21T15:48:31.845Z,3.90
2022-11-21T15:50:59.090Z,3.89
2022-11-21T15:53:26.025Z,3.76
2022-11-21T15:55:52.701Z,3.69
2022-11-21T15:58:19.512Z,3.62
2022-11-21T16:00:46.786Z,3.50
2022-11-21T16:03:13.472Z,3.46
2022-11-21T16:05:40.253Z,3.44
2022-11-21T16:08:06.859Z,3.40
2022-11-21T16:10:33.504Z,3.38
2022-11-21T16:13:00.088Z,3.37
2022-11-21T16:15:26.740Z,3.37
2022-11-21T16:17:53.405Z,3.31
2022-11-21T16:20:20.086Z,3.32
2022-11-21T16:22:48.036Z,3.38
2022-11-21T16:25:15.542Z,3.33
2022-11-21T16:27:42.358Z,3.23
2022-11-21T16:30:09.299Z,3.11
2022-11-21T16:32:36.101Z,3.17
2022-11-21T16:35:03.081Z,3.19
2022-11-21T16:37:31.720Z,3.17
2022-11-21T16:39:58.363Z,3.24
2022-11-21T16:42:25.270Z,3.17
2022-11-21T16:44:51.936Z,3.14
2022-11-21T16:47:18.633Z,3.14
2022-11-21T16:49:48.437Z,3.13
2022-11-21T16:52:16.024Z,3.11
2022-11-21T16:54:42.693Z,2.90
2022-11-21T16:57:09.424Z,2.92
2022-11-21T16:59:36.304Z,3.00
2022-11-21T17:02:03.770Z,3.07
2022-11-21T17:04:30.879Z,2.99
2022-11-21T17:06:57.839Z,3.01
2022-11-21T17:09:24.493Z,3.10
2022-11-21T17:11:51.844Z,3.17
2022-11-21T17:14:18.944Z,3.20
2022-11-21T17:16:45.846Z,3.24
2022-11-21T17:19:12.654Z,3.17
2022-11-21T17:21:39.407Z,3.30
2022-11-21T17:24:06.315Z,3.24
2022-11-21T17:26:35.889Z,3.39
2022-11-21T17:29:05.894Z,3.39
2022-11-21T17:31:32.734Z,3.38
2022-11-21T17:34:01.213Z,3.41
2022-11-21T17:36:29.708Z,3.49
2022-11-21T17:38:56.779Z,3.49
2022-11-21T17:41:24.667Z,3.44
2022-11-21T17:43:58.486Z,3.44
2022-11-21T17:46:25.959Z,3.49
2022-11-21T17:48:57.064Z,3.51
2022-11-21T17:51:29.803Z,3.40
2022-11-21T17:53:56.801Z,3.39
2022-11-21T17:56:25.920Z,3.45
2022-11-21T17:58:53.007Z,3.47
2022-11-21T18:01:20.567Z,3.46
2022-11-21T18:03:49.130Z,3.48
2022-11-21T18:06:17.341Z,3.42
2022-11-21T18:08:45.896Z,3.36
2022-11-21T18:11:15.272Z,3.49
2022-11-21T18:13:42.570Z,3.58
2022-11-21T18:16:23.479Z,3.62
2022-11-21T18:18:50.983Z,3.44
2022-11-21T18:21:35.453Z,3.52
2022-11-21T18:24:02.512Z,3.46
2022-11-21T18:26:35.107Z,3.27
2022-11-21T18:31:49.824Z,3.50
2022-11-21T18:34:16.484Z,3.56
2022-11-21T18:36:43.179Z,3.32
2022-11-21T18:39:14.700Z,3.28
2022-11-21T18:41:42.804Z,3.07
2022-11-21T18:44:09.992Z,3.02
2022-11-21T18:46:38.517Z,3.05
2022-11-21T18:49:07.266Z,3.18
2022-11-21T18:51:35.877Z,3.28
2022-11-21T18:54:08.294Z,3.34
2022-11-21T18:56:36.823Z,3.39
2022-11-21T18:59:05.964Z,3.44
2022-11-21T19:01:34.668Z,3.21
2022-11-21T19:04:01.452Z,3.31
2022-11-21T19:06:28.423Z,3.32
2022-11-21T19:08:57.258Z,3.31
2022-11-21T19:11:27.197Z,3.33
2022-11-21T19:13:55.713Z,3.25
2022-11-21T19:16:24.937Z,3.22
2022-11-21T19:21:41.238Z,3.11
2022-11-21T19:24:12.969Z,3.11
2022-11-21T19:26:39.888Z,3.19
2022-11-21T19:29:06.636Z,3.30
2022-11-21T19:31:34.840Z,3.19
2022-11-21T19:34:03.298Z,3.04
2022-11-21T19:36:30.283Z,3.10
2022-11-21T19:38:56.928Z,2.90
2022-11-21T19:41:26.191Z,2.82
2022-11-21T19:43:55.266Z,2.87
2022-11-21T19:46:31.349Z,2.91
2022-11-21T19:49:07.479Z,2.99
2022-11-21T19:51:37.156Z,3.09
2022-11-21T19:54:08.329Z,2.92
2022-11-21T19:56:35.671Z,2.95
2022-11-21T19:59:02.316Z,3.07
2022-11-21T20:01:31.224Z,3.20
2022-11-21T20:04:01.188Z,3.27
2022-11-21T20:06:31.359Z,3.08
2022-11-21T20:09:00.294Z,3.11
2022-11-21T20:11:28.758Z,2.85
2022-11-21T20:13:55.989Z,2.78
2022-11-21T20:16:43.467Z,2.97
2022-11-21T20:19:14.638Z,3.07
2022-11-21T20:21:42.116Z,3.17
2022-11-21T20:24:09.549Z,2.93
2022-11-21T20:26:36.984Z,3.09
2022-11-21T20:29:04.184Z,2.94
2022-11-21T20:31:33.734Z,3.07
2022-11-21T20:34:04.375Z,3.06
2022-11-21T20:36:33.309Z,3.00
2022-11-21T20:39:02.671Z,3.07
2022-11-21T20:41:31.840Z,3.15
2022-11-21T20:46:50.824Z,3.07
2022-11-21T20:49:17.818Z,2.99
2022-11-21T20:54:31.479Z,3.08
2022-11-21T20:56:58.469Z,3.02
2022-11-21T20:59:26.172Z,3.15
2022-11-21T21:01:53.058Z,3.11
2022-11-21T21:04:19.884Z,3.13
2022-11-21T21:06:46.543Z,3.08
2022-11-21T21:09:13.179Z,3.04
2022-11-21T21:11:55.161Z,3.04
2022-11-21T21:14:22.045Z,2.96
2022-11-21T21:16:49.195Z,2.99
2022-11-21T21:19:16.254Z,3.02
2022-11-21T21:21:42.967Z,2.99
2022-11-21T21:24:11.287Z,2.97
2022-11-21T21:26:43.087Z,2.88
2022-11-21T21:29:11.984Z,2.94
2022-11-21T21:31:39.001Z,2.84
2022-11-21T21:34:05.794Z,2.84
2022-11-21T21:36:32.583Z,2.82
2022-11-21T21:39:00.413Z,2.78
2022-11-21T21:41:29.133Z,2.75
2022-11-21T21:43:57.187Z,2.78
2022-11-21T21:46:26.226Z,2.83
2022-11-21T21:48:57.633Z,2.91
2022-11-21T21:51:26.610Z,3.00
2022-11-21T21:53:54.980Z,3.02
2022-11-21T21:56:23.018Z,3.05
2022-11-21T21:58:50.873Z,2.99
2022-11-21T22:01:20.033Z,2.93
2022-11-21T22:03:47.810Z,3.06
2022-11-21T22:06:16.881Z,3.15
2022-11-21T22:08:45.149Z,3.32
2022-11-21T22:11:12.935Z,3.40
2022-11-21T22:13:41.800Z,3.33
2022-11-21T22:16:10.679Z,3.40
2022-11-21T22:18:37.686Z,3.34
2022-11-21T22:21:14.663Z,3.21
2022-11-21T22:23:56.508Z,3.31
2022-11-21T22:26:28.778Z,3.31
2022-11-21T22:28:55.851Z,3.44
2022-11-21T22:31:22.474Z,3.29
2022-11-21T22:33:49.200Z,3.33
2022-11-21T22:36:18.565Z,3.27
2022-11-21T22:38:45.709Z,3.29
2022-11-21T22:41:17.731Z,3.17
2022-11-21T22:43:48.707Z,3.23
2022-11-21T22:46:15.444Z,3.32
2022-11-21T22:48:42.158Z,3.38
2022-11-21T22:51:12.091Z,3.45
2022-11-21T22:53:40.330Z,3.54
2022-11-21T22:56:09.708Z,3.40
2022-11-21T22:58:39.095Z,3.42
2022-11-21T23:01:14.955Z,3.45
2022-11-21T23:03:42.669Z,3.55
2022-11-21T23:06:11.455Z,3.48
2022-11-21T23:08:38.958Z,3.53
2022-11-21T23:11:11.609Z,3.60
2022-11-21T23:13:40.787Z,3.60
2022-11-21T23:16:08.417Z,3.58
2022-11-21T23:18:35.480Z,3.56
2022-11-21T23:21:02.521Z,3.59
2022-11-21T23:23:29.275Z,3.52
2022-11-21T23:25:56.022Z,3.47
2022-11-21T23:28:23.081Z,3.45
2022-11-21T23:30:51.252Z,3.65
2022-11-21T23:33:18.641Z,3.66
2022-11-21T23:35:46.297Z,3.58
2022-11-21T23:38:15.248Z,3.69
2022-11-21T23:40:44.275Z,3.75
2022-11-21T23:43:11.000Z,3.77
2022-11-21T23:45:37.824Z,3.74
2022-11-21T23:48:04.759Z,3.74
2022-11-21T23:50:31.376Z,3.89
2022-11-21T23:52:58.384Z,3.94
2022-11-21T23:55:25.019Z,3.85
2022-11-21T23:57:51.797Z,3.86
